Weather History for Quillayute, WA

Change the Weather History Date:

Friday, September 20, 2013

  Actual Average Record
Temperature  
Mean Temperature 61 °F 56 °F  
Max Temperature 64 °F 66 °F 88 °F (1974)
Min Temperature 57 °F 46 °F 36 °F (1968)
Degree Days  
Heating Degree Days 4 9  
Month to date heating degree days 36 153  
Since 1 July heating degree days 208 522  
Cooling Degree Days 0 0  
Month to date cooling degree days 14 0  
Year to date cooling degree days 39 17  
Growing Degree Days 10 (Base 50)    
Moisture  
Dew Point 56 °F    
Average Humidity 75    
Maximum Humidity 90    
Minimum Humidity 60    
Precipitation  
Precipitation 1.81 in 0.13 in 2.62 in (1972)
Month to date precipitation 2.58 2.24  
Year to date precipitation 64.40 58.96  
Sea Level Pressure  
Sea Level Pressure 29.64 in    
Wind  
Wind Speed 3 mph (South)    
Max Wind Speed 12 mph    
Max Gust Speed 22 mph    
Visibility 4 miles    
Events Fog , Rain    
T = Trace of Precipitation, MM = Missing Value Source: NWS Daily Summary

Daily Weather History Graph

Daily Weather History Graph

Search for Another Location

Airport:

Trip Planner

Search our weather history database for the weather conditions in past years. The results will help you decide how hot, cold, wet, or windy it might be!

Date:

Astronomy

Sep. 20, 2013 Rise Set
Actual Time 7:02 AM PDT 7:19 PM PDT
Civil Twilight 6:31 AM PDT 7:50 PM PDT
Nautical Twilight 5:55 AM PDT 8:26 PM PDT
Astronomical Twilight 5:17 AM PDT 9:04 PM PDT
Moon 7:45 PM PDT (9/20) 8:33 AM PDT (9/20)
Length of Visible Light 13h 18m
Length of Day
12h 16m
Full, 98% of the Moon is Illuminated
Sep 20
Full
Sep 26
Last Quarter
Oct 4
New
Oct 11
First Quarter
Oct 18
Full

Hourly Weather History & Observations

Time (PDT) Temp. Dew Point Humidity Pressure Visibility Wind Dir Wind Speed Gust Speed Precip Events Conditions
12:01 AM 60.8 °F 46.4 °F 59% 29.76 in 8.0 mi Calm Calm - N/A   Mostly Cloudy
12:53 AM 62.1 °F 48.9 °F 62% 29.74 in 8.0 mi Calm Calm - N/A   Overcast
1:53 AM 63.0 °F 48.9 °F 60% 29.73 in 8.0 mi ESE 4.6 mph - N/A   Overcast
2:53 AM 60.1 °F 51.1 °F 72% 29.71 in 8.0 mi Calm Calm - N/A   Overcast
3:04 AM 60.8 °F 51.8 °F 72% 29.71 in 8.0 mi ENE 3.5 mph - N/A   Mostly Cloudy
3:13 AM 59.0 °F 50.0 °F 72% 29.70 in 8.0 mi East 3.5 mph - N/A   Mostly Cloudy
3:53 AM 62.1 °F 51.1 °F 67% 29.70 in 8.0 mi ESE 3.5 mph - N/A   Mostly Cloudy
4:53 AM 60.1 °F 50.0 °F 69% 29.66 in 8.0 mi East 3.5 mph - N/A   Clear
5:53 AM 59.0 °F 51.1 °F 75% 29.64 in 8.0 mi Calm Calm - N/A   Clear
6:53 AM 57.0 °F 51.1 °F 81% 29.64 in 8.0 mi Calm Calm - N/A   Partly Cloudy
7:53 AM 60.1 °F 52.0 °F 75% 29.64 in 6.0 mi Calm Calm - N/A   Haze
8:01 AM 60.8 °F 51.8 °F 72% 29.64 in 5.0 mi WSW 3.5 mph - N/A   Haze
8:07 AM 60.8 °F 53.6 °F 77% 29.65 in 1.8 mi SSW 9.2 mph - 0.00 in Rain Light Rain
8:14 AM 60.8 °F 55.4 °F 82% 29.65 in 0.8 mi SSW 11.5 mph 17.3 mph 0.01 in Rain Rain
8:48 AM 60.8 °F 57.2 °F 88% 29.67 in 0.5 mi SW 10.4 mph 16.1 mph 0.32 in Fog , Rain Heavy Rain
8:53 AM 60.1 °F 57.0 °F 90% 29.67 in 0.5 mi South 10.4 mph - 0.37 in Fog , Rain Heavy Rain
9:08 AM 60.8 °F 57.2 °F 88% 29.66 in 1.0 mi SSE 6.9 mph - 0.18 in Rain Heavy Rain
9:16 AM 60.8 °F 57.2 °F 88% 29.65 in 1.2 mi Variable 4.6 mph - 0.21 in Rain Light Rain
9:19 AM 60.8 °F 57.2 °F 88% 29.65 in 1.5 mi ESE 4.6 mph - 0.22 in Rain Light Rain
9:27 AM 60.8 °F 57.2 °F 88% 29.66 in 3.0 mi SSE 4.6 mph - 0.22 in Rain Light Rain
9:49 AM 60.8 °F 57.2 °F 88% 29.66 in 1.8 mi Variable 5.8 mph - 0.24 in Rain Heavy Rain
9:53 AM 61.0 °F 57.0 °F 87% 29.67 in 1.5 mi SSW 4.6 mph - 0.25 in Rain Rain
10:17 AM 60.8 °F 57.2 °F 88% 29.65 in 3.0 mi SE 5.8 mph - 0.07 in Rain Rain
10:53 AM 61.0 °F 57.9 °F 90% 29.64 in 5.0 mi SE 3.5 mph - 0.08 in Rain Light Rain
11:53 AM 63.0 °F 59.0 °F 87% 29.64 in 3.0 mi SE 3.5 mph - 0.04 in Rain Rain
12:13 PM 62.6 °F 57.2 °F 82% 29.63 in 5.0 mi SE 4.6 mph - 0.01 in Rain Light Rain
12:53 PM 63.0 °F 59.0 °F 87% 29.62 in 4.0 mi SE 5.8 mph - 0.03 in Rain Light Rain
1:04 PM 64.4 °F 59.0 °F 83% 29.62 in 3.0 mi SSE 5.8 mph - 0.00 in Rain Light Rain
1:20 PM 62.6 °F 59.0 °F 88% 29.62 in 7.0 mi South 3.5 mph - 0.00 in Rain Light Rain
1:53 PM 63.0 °F 59.0 °F 87% 29.62 in 5.0 mi Variable 3.5 mph - 0.03 in Rain Light Rain
2:39 PM 62.6 °F 59.0 °F 88% 29.61 in 2.5 mi Variable 3.5 mph - 0.05 in Rain Rain
2:45 PM 62.6 °F 59.0 °F 88% 29.61 in 3.0 mi Variable 4.6 mph - 0.06 in Rain Light Rain
2:53 PM 63.0 °F 59.0 °F 87% 29.61 in 4.0 mi South 3.5 mph - 0.06 in Rain Light Rain
3:00 PM 62.6 °F 57.2 °F 82% 29.61 in 2.0 mi Variable 3.5 mph - 0.00 in Rain Light Rain
3:04 PM 62.6 °F 57.2 °F 82% 29.61 in 1.2 mi South 3.5 mph - 0.04 in Rain Heavy Rain
3:11 PM 62.6 °F 57.2 °F 82% 29.61 in 2.0 mi Variable 4.6 mph - 0.05 in Rain Rain
3:24 PM 62.6 °F 57.2 °F 82% 29.61 in 3.0 mi Variable 5.8 mph - 0.07 in Rain Light Rain
3:53 PM 62.1 °F 59.0 °F 90% 29.61 in 3.0 mi South 6.9 mph - 0.09 in Rain Light Rain
4:29 PM 62.6 °F 57.2 °F 82% 29.61 in 2.0 mi South 6.9 mph - 0.03 in Rain Rain
4:36 PM 60.8 °F 57.2 °F 88% 29.61 in 3.0 mi Variable 5.8 mph - 0.04 in Rain Light Rain
4:53 PM 62.1 °F 57.0 °F 84% 29.61 in 4.0 mi SSW 5.8 mph - 0.04 in Rain Light Rain
5:00 PM 62.6 °F 57.2 °F 82% 29.61 in 5.0 mi SSW 6.9 mph - 0.01 in Rain Light Rain
5:09 PM 62.6 °F 57.2 °F 82% 29.61 in 6.0 mi South 5.8 mph - 0.01 in Rain Light Rain
5:42 PM 60.8 °F 55.4 °F 82% 29.61 in 5.0 mi South 5.8 mph - 0.01 in Rain Light Rain
5:53 PM 61.0 °F 55.9 °F 83% 29.61 in 5.0 mi South 5.8 mph - 0.01 in Rain Light Rain
6:05 PM 60.8 °F 55.4 °F 82% 29.61 in 4.0 mi Variable 5.8 mph - 0.01 in Rain Light Rain
6:17 PM 60.8 °F 57.2 °F 88% 29.61 in 4.0 mi Variable 4.6 mph - 0.02 in Rain Light Rain
6:33 PM 60.8 °F 57.2 °F 88% 29.62 in 4.0 mi South 9.2 mph 16.1 mph 0.03 in Rain Light Rain
6:43 PM 60.8 °F 55.4 °F 82% 29.62 in 1.8 mi South 6.9 mph 16.1 mph 0.05 in Rain Rain
6:53 PM 60.1 °F 57.0 °F 90% 29.62 in 1.0 mi South 5.8 mph - 0.10 in Rain Rain
6:56 PM 60.8 °F 57.2 °F 88% 29.62 in 0.8 mi Variable 5.8 mph - 0.03 in Rain Heavy Rain
7:06 PM 60.8 °F 57.2 °F 88% 29.62 in 1.2 mi Variable 6.9 mph - 0.13 in Rain Heavy Rain
7:09 PM 60.8 °F 57.2 °F 88% 29.62 in 1.8 mi South 8.1 mph - 0.14 in Rain Rain
7:15 PM 60.8 °F 57.2 °F 88% 29.62 in 3.0 mi South 10.4 mph - 0.16 in Rain Rain
7:23 PM 60.8 °F 57.2 °F 88% 29.62 in 4.0 mi South 8.1 mph - 0.18 in Rain Light Rain
7:36 PM 60.8 °F 57.2 °F 88% 29.62 in 2.5 mi South 4.6 mph - 0.20 in Rain Rain
7:53 PM 60.1 °F 57.0 °F 90% 29.63 in 1.2 mi SSW 3.5 mph - 0.29 in Rain Heavy Rain
8:20 PM 60.8 °F 57.2 °F 88% 29.63 in 2.0 mi Calm Calm - 0.30 in Rain Rain
8:30 PM 60.8 °F 57.2 °F 88% 29.63 in 4.0 mi Calm Calm - 0.32 in Rain Light Rain
8:53 PM 60.1 °F 57.0 °F 90% 29.63 in 6.0 mi Calm Calm - 0.33 in Rain Light Rain
9:01 PM 60.8 °F 57.2 °F 88% 29.63 in 6.0 mi Calm Calm - 0.00 in Rain Light Rain
9:29 PM 60.8 °F 55.4 °F 82% 29.64 in 3.0 mi SSE 3.5 mph - 0.04 in Rain Heavy Rain
9:51 PM 60.8 °F 55.4 °F 82% 29.64 in 2.5 mi SW 3.5 mph - 0.07 in Rain Light Rain
9:53 PM 60.1 °F 55.9 °F 86% 29.65 in 3.0 mi SW 4.6 mph - 0.08 in Rain Light Rain
10:05 PM 60.8 °F 55.4 °F 82% 29.64 in 3.0 mi SSW 3.5 mph - 0.01 in Rain Light Rain
10:12 PM 60.8 °F 55.4 °F 82% 29.64 in 5.0 mi SSE 3.5 mph - 0.01 in Rain Light Rain
10:19 PM 60.8 °F 55.4 °F 82% 29.64 in 6.0 mi Calm Calm - 0.01 in Rain Light Rain
10:35 PM 60.8 °F 55.4 °F 82% 29.64 in 6.0 mi Calm Calm - 0.01 in   Overcast
10:53 PM 60.1 °F 55.9 °F 86% 29.65 in 5.0 mi Calm Calm - 0.01 in Rain Light Rain
11:08 PM 60.8 °F 55.4 °F 82% 29.65 in 6.0 mi Calm Calm - 0.00 in Rain Light Rain
11:15 PM 60.8 °F 55.4 °F 82% 29.65 in 5.0 mi Calm Calm - 0.00 in   Overcast
11:41 PM 59.0 °F 55.4 °F 88% 29.65 in 8.0 mi Calm Calm - 0.00 in   Overcast
11:47 PM 59.0 °F 55.4 °F 88% 29.65 in 8.0 mi Calm Calm - 0.00 in   Overcast
11:53 PM 59.0 °F 55.0 °F 87% 29.65 in 8.0 mi Calm Calm - 0.00 in   Overcast